Time;durP1;ratioP1;P1;durP2;ratioP2;P2;SDS_P1;SDS_P2;PMS_P1;PMS_P2;Temp;Humidity;BMP_temperature;BMP_pressure;BME280_temperature;BME280_humidity;BME280_pressure;Samples;Min_cycle;Max_cycle;Signal;HPM_P1;HPM_P2
2023/08/06 00:00:35;;;;;;;;;0.00;0.00;;;;;-143.47;100.00;63865.75;2097300;28;46305;-52
2023/08/06 00:01:35;;;;;;;;;0.00;0.00;;;;;-143.47;100.00;63865.75;2096779;28;46396;-50
2023/08/06 00:02:36;;;;;;;;;0.00;0.00;;;;;-143.47;100.00;63865.75;2097755;28;46715;-50
2023/08/06 00:03:36;;;;;;;;;0.00;0.00;;;;;-143.47;100.00;63865.75;2099609;28;46296;-50
2023/08/06 00:04:36;;;;;;;;;0.00;0.00;;;;;-143.47;100.00;63865.75;2096446;28;45128;-50
2023/08/06 00:05:37;;;;;;;;;0.00;0.00;;;;;-143.47;100.00;63865.75;2095929;28;46239;-50
2023/08/06 00:06:37;;;;;;;;;0.00;0.00;;;;;-143.47;100.00;63865.75;2096990;28;47017;-54
2023/08/06 00:07:37;;;;;;;;;0.00;0.00;;;;;-143.47;100.00;63865.75;2104169;28;46807;-53
2023/08/06 00:08:38;;;;;;;;;0.00;0.00;;;;;-143.47;100.00;63865.75;2104474;27;46799;-53
2023/08/06 00:09:38;;;;;;;;;0.00;0.00;;;;;-143.47;100.00;63865.75;2095545;28;45904;-53
2023/08/06 00:10:41;;;;;;;;;0.00;0.00;;;;;-143.47;100.00;63865.75;2094478;28;46611;-50
2023/08/06 00:11:43;;;;;;;;;0.00;0.00;;;;;-143.47;100.00;63865.75;2104236;28;46826;-49
2023/08/06 00:12:44;;;;;;;;;0.00;0.00;;;;;-143.47;100.00;63865.75;2104617;27;46428;-53
2023/08/06 00:13:44;;;;;;;;;0.00;0.00;;;;;-143.47;100.00;63865.75;2098222;28;46738;-53
2023/08/06 00:14:45;;;;;;;;;0.00;0.00;;;;;-143.47;100.00;63865.75;2095933;28;46872;-51
2023/08/06 00:15:45;;;;;;;;;0.00;0.00;;;;;-143.47;100.00;63865.75;2084232;28;46988;-52
2023/08/06 00:16:46;;;;;;;;;0.00;0.00;;;;;-143.47;100.00;63865.75;2087122;28;46570;-52
2023/08/06 00:17:46;;;;;;;;;0.00;0.00;;;;;-143.47;100.00;63865.75;2095999;28;46399;-48
2023/08/06 00:18:46;;;;;;;;;0.00;0.00;;;;;-143.47;100.00;63865.75;2097724;28;46314;-53
2023/08/06 00:19:47;;;;;;;;;0.00;0.00;;;;;-143.47;100.00;63865.75;2095260;28;46484;-50
2023/08/06 00:20:47;;;;;;;;;0.00;0.00;;;;;-143.47;100.00;63865.75;2097266;28;46753;-52
2023/08/06 00:21:47;;;;;;;;;0.00;0.00;;;;;-143.47;100.00;63865.75;2097842;28;46505;-50
2023/08/06 00:22:48;;;;;;;;;0.00;0.00;;;;;-143.47;100.00;63865.75;2094819;28;46824;-52
2023/08/06 00:23:48;;;;;;;;;0.00;0.00;;;;;-143.47;100.00;63865.75;2095729;28;46563;-46
2023/08/06 00:24:48;;;;;;;;;0.00;0.00;;;;;-143.47;100.00;63865.75;2103769;28;46725;-48
2023/08/06 00:25:49;;;;;;;;;0.00;0.00;;;;;-143.47;100.00;63865.75;2098234;27;46184;-50
2023/08/06 00:26:49;;;;;;;;;0.00;0.00;;;;;-143.47;100.00;63865.75;2101724;27;46210;-52
2023/08/06 00:27:49;;;;;;;;;0.00;0.00;;;;;-143.47;100.00;63865.75;2101876;28;46205;-50
2023/08/06 00:28:49;;;;;;;;;0.00;0.00;;;;;-143.47;100.00;63865.75;2104737;27;46254;-52
2023/08/06 00:29:50;;;;;;;;;0.00;0.00;;;;;-143.47;100.00;63865.75;2103385;27;46044;-49
2023/08/06 00:30:54;;;;;;;;;0.00;0.00;;;;;-143.47;100.00;63865.75;2099626;28;46274;-49
2023/08/06 00:31:54;;;;;;;;;3.25;3.00;;;;;-143.47;100.00;63865.75;2099113;27;47034;-50
2023/08/06 00:32:55;;;;;;;;;1.00;1.00;;;;;-143.47;100.00;63865.75;2103760;28;46669;-52
2023/08/06 00:33:55;;;;;;;;;2.67;1.67;;;;;-143.47;100.00;63865.75;2104964;27;46831;-53
2023/08/06 00:34:56;;;;;;;;;0.00;0.00;;;;;-143.47;100.00;63865.75;2101537;27;46709;-51
2023/08/06 00:35:56;;;;;;;;;0.00;0.00;;;;;-143.47;100.00;63865.75;2100420;28;46366;-50
2023/08/06 00:36:57;;;;;;;;;0.00;0.00;;;;;-143.47;100.00;63865.75;2098072;28;46748;-53
2023/08/06 00:37:57;;;;;;;;;0.00;0.00;;;;;-143.47;100.00;63865.75;2104706;27;46251;-52
2023/08/06 00:38:57;;;;;;;;;0.00;0.00;;;;;-143.47;100.00;63865.75;2104799;27;46209;-52
2023/08/06 00:39:58;;;;;;;;;1.00;1.00;;;;;-143.47;100.00;63865.75;2099471;27;46179;-52
2023/08/06 00:40:58;;;;;;;;;1.00;1.00;;;;;-143.47;100.00;63865.75;2103081;28;46526;-53
2023/08/06 00:41:58;;;;;;;;;1.00;1.00;;;;;-143.47;100.00;63865.75;2099297;28;46443;-53
2023/08/06 00:42:59;;;;;;;;;1.00;1.00;;;;;-143.47;100.00;63865.75;2104656;27;46770;-51
2023/08/06 00:43:59;;;;;;;;;0.00;0.00;;;;;-143.47;100.00;63865.75;2103317;27;46376;-53
2023/08/06 00:45:00;;;;;;;;;0.00;0.00;;;;;-143.47;100.00;63865.75;2096403;28;46717;-53
2023/08/06 00:46:00;;;;;;;;;0.67;0.67;;;;;-143.47;100.00;63865.75;2096955;28;46170;-51
2023/08/06 00:47:01;;;;;;;;;0.00;0.00;;;;;-143.47;100.00;63865.75;2100197;28;46204;-53
2023/08/06 00:48:03;;;;;;;;;0.00;0.00;;;;;-143.47;100.00;63865.75;2099618;27;46631;-55
2023/08/06 00:49:04;;;;;;;;;0.00;0.00;;;;;-143.47;100.00;63865.75;2096131;28;46931;-52
2023/08/06 00:50:07;;;;;;;;;0.00;0.00;;;;;-143.47;100.00;63865.75;2099153;28;46450;-52
2023/08/06 00:51:11;;;;;;;;;0.25;0.00;;;;;-143.47;100.00;63865.75;2096329;28;47202;-54
2023/08/06 00:52:13;;;;;;;;;0.00;0.00;;;;;-143.47;100.00;63865.75;2102997;28;46574;-53
2023/08/06 00:53:14;;;;;;;;;0.00;0.00;;;;;-143.47;100.00;63865.75;2104945;27;47053;-50
2023/08/06 00:54:15;;;;;;;;;1.25;1.00;;;;;-143.47;100.00;63865.75;2100968;28;46781;-52
2023/08/06 00:55:15;;;;;;;;;0.00;0.00;;;;;-143.47;100.00;63865.75;2100940;28;47052;-55
2023/08/06 00:56:16;;;;;;;;;0.00;0.00;;;;;-143.47;100.00;63865.75;2093767;28;46541;-53
2023/08/06 00:57:16;;;;;;;;;0.00;0.00;;;;;-143.47;100.00;63865.75;2098091;28;46080;-53
2023/08/06 00:58:17;;;;;;;;;0.00;0.00;;;;;-143.47;100.00;63865.75;2110488;27;46172;-52
2023/08/06 00:59:17;;;;;;;;;0.00;0.00;;;;;-143.47;100.00;63865.75;2110828;27;46634;-51
2023/08/06 01:00:19;;;;;;;;;1.00;0.00;;;;;-143.47;100.00;63865.75;2096470;28;46216;-54
2023/08/06 01:01:19;;;;;;;;;0.00;0.00;;;;;-143.47;100.00;63865.75;2096182;28;46879;-52
2023/08/06 01:02:20;;;;;;;;;0.33;0.00;;;;;-143.47;100.00;63865.75;2101680;28;46285;-53
2023/08/06 01:03:20;;;;;;;;;0.00;0.00;;;;;-143.47;100.00;63865.75;2104572;28;46581;-51
2023/08/06 01:04:22;;;;;;;;;0.00;0.00;;;;;-143.47;100.00;63865.75;2099333;28;46469;-54
2023/08/06 01:05:23;;;;;;;;;0.25;0.25;;;;;-143.47;100.00;63865.75;2100127;28;46676;-50
2023/08/06 01:06:55;;;;;;;;;0.00;0.00;;;;;-143.47;100.00;63865.75;2096352;28;46603;-52
2023/08/06 01:08:08;;;;;;;;;0.50;0.50;;;;;-143.47;100.00;63865.75;2070307;28;47175;-51
2023/08/06 01:09:31;;;;;;;;;0.00;0.00;;;;;-143.47;100.00;63865.75;2072506;28;46650;-50
2023/08/06 01:10:57;;;;;;;;;0.00;0.00;;;;;-143.47;100.00;63865.75;2075517;28;46610;-52
2023/08/06 01:12:10;;;;;;;;;0.00;0.00;;;;;-143.47;100.00;63865.75;2074239;28;46662;-52
2023/08/06 01:13:38;;;;;;;;;0.00;0.00;;;;;-143.47;100.00;63865.75;2072606;28;46770;-51
2023/08/06 01:14:52;;;;;;;;;0.00;0.00;;;;;-143.47;100.00;63865.75;2068493;28;46705;-48
2023/08/06 01:15:59;;;;;;;;;0.00;0.00;;;;;-143.47;100.00;63865.75;2065591;28;46321;-48
2023/08/06 01:17:01;;;;;;;;;0.25;0.25;;;;;-143.47;100.00;63865.75;2076078;28;46628;-52
2023/08/06 01:18:02;;;;;;;;;0.00;0.00;;;;;-143.47;100.00;63865.75;2072819;28;46390;-51
2023/08/06 01:19:02;;;;;;;;;1.00;0.00;;;;;-143.47;100.00;63865.75;2073950;28;46746;-51
2023/08/06 01:20:03;;;;;;;;;0.00;0.00;;;;;-143.47;100.00;63865.75;2070298;28;46653;-50
2023/08/06 01:21:04;;;;;;;;;0.00;0.00;;;;;-143.47;100.00;63865.75;2070979;28;45391;-53
2023/08/06 01:22:04;;;;;;;;;0.00;0.00;;;;;-143.47;100.00;63865.75;2075148;28;46477;-50
2023/08/06 01:23:04;;;;;;;;;0.00;0.00;;;;;-143.47;100.00;63865.75;2073895;28;46844;-48
2023/08/06 01:24:05;;;;;;;;;0.00;0.00;;;;;-143.47;100.00;63865.75;2071667;28;46309;-49
2023/08/06 01:25:06;;;;;;;;;0.00;0.00;;;;;-143.47;100.00;63865.75;2074907;28;46297;-49
2023/08/06 01:26:25;;;;;;;;;0.00;0.00;;;;;-143.47;100.00;63865.75;2072459;28;47115;-51
2023/08/06 01:27:38;;;;;;;;;0.00;0.00;;;;;-143.47;100.00;63865.75;2070621;28;46939;-51
2023/08/06 01:28:56;;;;;;;;;0.00;0.00;;;;;-143.47;100.00;63865.75;2073712;28;46642;-52
2023/08/06 01:30:04;;;;;;;;;0.00;0.00;;;;;-143.47;100.00;63865.75;2075089;28;46661;-52
2023/08/06 01:31:10;;;;;;;;;0.00;0.00;;;;;-143.47;100.00;63865.75;2061859;28;46385;-49
2023/08/06 01:32:14;;;;;;;;;0.00;0.00;;;;;-143.47;100.00;63865.75;2065742;28;46861;-51
2023/08/06 01:33:19;;;;;;;;;0.00;0.00;;;;;-143.47;100.00;63865.75;2075587;28;46658;-51
2023/08/06 01:34:25;;;;;;;;;0.00;0.00;;;;;-143.47;100.00;63865.75;2070229;28;45768;-51
2023/08/06 01:35:29;;;;;;;;;1.00;1.00;;;;;-143.47;100.00;63865.75;2069575;28;46674;-53
2023/08/06 01:36:30;;;;;;;;;0.00;0.00;;;;;-143.47;100.00;63865.75;2076361;28;46834;-58
2023/08/06 01:37:31;;;;;;;;;0.00;0.00;;;;;-143.47;100.00;63865.75;2074568;28;46929;-52
2023/08/06 01:38:32;;;;;;;;;0.25;0.25;;;;;-143.47;100.00;63865.75;2072798;28;46658;-50
2023/08/06 01:39:35;;;;;;;;;0.00;0.00;;;;;-143.47;100.00;63865.75;2059586;28;46610;-49
2023/08/06 01:40:35;;;;;;;;;0.25;0.25;;;;;-143.47;100.00;63865.75;2055949;28;46349;-53
2023/08/06 01:41:36;;;;;;;;;0.00;0.00;;;;;-143.47;100.00;63865.75;2071562;28;46287;-53
2023/08/06 01:42:36;;;;;;;;;0.00;0.00;;;;;-143.47;100.00;63865.75;2076150;28;46352;-52
2023/08/06 01:43:36;;;;;;;;;1.00;1.00;;;;;-143.47;100.00;63865.75;2079533;28;45954;-51
2023/08/06 01:44:37;;;;;;;;;0.00;0.00;;;;;-143.47;100.00;63865.75;2072878;28;47158;-51
2023/08/06 01:45:37;;;;;;;;;0.00;0.00;;;;;-143.47;100.00;63865.75;2090679;28;46732;-49
2023/08/06 01:46:37;;;;;;;;;0.67;0.33;;;;;-143.47;100.00;63865.75;2097617;28;46035;-52
2023/08/06 01:47:38;;;;;;;;;2.00;1.00;;;;;-143.47;100.00;63865.75;2100675;28;46331;-52
2023/08/06 01:48:38;;;;;;;;;0.67;0.67;;;;;-143.47;100.00;63865.75;2097017;28;46526;-51
2023/08/06 01:49:38;;;;;;;;;0.00;0.00;;;;;-143.47;100.00;63865.75;2097314;28;46744;-48
2023/08/06 01:50:39;;;;;;;;;0.00;0.00;;;;;-143.47;100.00;63865.75;2097364;28;46497;-52
2023/08/06 01:51:39;;;;;;;;;0.33;0.00;;;;;-143.47;100.00;63865.75;2097567;28;46380;-52
2023/08/06 01:52:39;;;;;;;;;0.00;0.00;;;;;-143.47;100.00;63865.75;2100126;28;46241;-49
2023/08/06 01:53:40;;;;;;;;;0.00;0.00;;;;;-143.47;100.00;63865.75;2097747;28;46422;-53
2023/08/06 01:54:40;;;;;;;;;2.67;1.00;;;;;-143.47;100.00;63865.75;2099020;28;46658;-54
2023/08/06 01:55:40;;;;;;;;;0.67;0.67;;;;;-143.47;100.00;63865.75;2099672;28;46768;-53
2023/08/06 01:56:41;;;;;;;;;1.00;1.00;;;;;-143.47;100.00;63865.75;2097149;28;46640;-54
2023/08/06 01:57:41;;;;;;;;;0.00;0.00;;;;;-143.47;100.00;63865.75;2097049;28;46397;-53
2023/08/06 01:58:41;;;;;;;;;1.33;1.00;;;;;-143.47;100.00;63865.75;2088557;28;46163;-52
2023/08/06 01:59:41;;;;;;;;;1.00;1.00;;;;;-143.47;100.00;63865.75;2088175;28;46919;-51
2023/08/06 02:00:42;;;;;;;;;1.00;1.00;;;;;-143.47;100.00;63865.75;2098557;28;46212;-51
2023/08/06 02:01:42;;;;;;;;;1.00;1.00;;;;;-143.47;100.00;63865.75;2097077;28;45474;-49
2023/08/06 02:02:42;;;;;;;;;1.00;1.00;;;;;-143.47;100.00;63865.75;2096718;28;46247;-51
2023/08/06 02:03:43;;;;;;;;;1.00;0.00;;;;;-143.47;100.00;63865.75;2097281;28;46603;-48
2023/08/06 02:04:43;;;;;;;;;0.00;0.00;;;;;-143.47;100.00;63865.75;2099663;28;46416;-49
2023/08/06 02:05:44;;;;;;;;;2.00;1.33;;;;;-143.47;100.00;63865.75;2100691;28;47005;-48
2023/08/06 02:06:44;;;;;;;;;1.67;1.00;;;;;-143.47;100.00;63865.75;2097316;28;46766;-52
2023/08/06 02:07:44;;;;;;;;;0.00;0.00;;;;;-143.47;100.00;63865.75;2104906;28;46674;-52
2023/08/06 02:08:45;;;;;;;;;0.00;0.00;;;;;-143.47;100.00;63865.75;2105384;27;47111;-51
2023/08/06 02:09:45;;;;;;;;;2.00;2.00;;;;;-143.47;100.00;63865.75;2106096;27;46529;-52
2023/08/06 02:10:45;;;;;;;;;0.33;0.00;;;;;-143.47;100.00;63865.75;2104747;27;46536;-50
2023/08/06 02:11:46;;;;;;;;;0.67;0.67;;;;;-143.47;100.00;63865.75;2105119;27;46574;-48
2023/08/06 02:12:46;;;;;;;;;1.33;0.00;;;;;-143.47;100.00;63865.75;2106027;27;46706;-48
2023/08/06 02:13:46;;;;;;;;;0.00;0.00;;;;;-143.47;100.00;63865.75;2102691;27;46323;-50
2023/08/06 02:14:47;;;;;;;;;1.00;1.00;;;;;-143.47;100.00;63865.75;2096960;28;46242;-50
2023/08/06 02:15:47;;;;;;;;;2.00;1.00;;;;;-143.47;100.00;63865.75;2097955;28;46267;-50
2023/08/06 02:16:48;;;;;;;;;1.00;1.00;;;;;-143.47;100.00;63865.75;2097165;28;46585;-49
2023/08/06 02:17:48;;;;;;;;;0.25;0.25;;;;;-143.47;100.00;63865.75;2096819;28;47058;-47
2023/08/06 02:18:49;;;;;;;;;0.67;0.67;;;;;-143.47;100.00;63865.75;2097769;28;46622;-50
2023/08/06 02:19:49;;;;;;;;;3.00;1.00;;;;;-143.47;100.00;63865.75;2097471;28;46485;-48
2023/08/06 02:20:58;;;;;;;;;1.00;1.00;;;;;-143.47;100.00;63865.75;2104497;28;46164;-49
2023/08/06 02:21:59;;;;;;;;;4.25;4.00;;;;;-143.47;100.00;63865.75;2102513;28;46044;-49
2023/08/06 02:22:59;;;;;;;;;2.00;2.00;;;;;-143.47;100.00;63865.75;2105309;28;46460;-52
2023/08/06 02:24:00;;;;;;;;;4.00;1.33;;;;;-143.47;100.00;63865.75;2091027;28;46279;-51
2023/08/06 02:25:01;;;;;;;;;0.00;0.00;;;;;-143.47;100.00;63865.75;2096221;28;46505;-48
2023/08/06 02:26:02;;;;;;;;;2.00;0.33;;;;;-143.47;100.00;63865.75;2105289;28;46226;-49
2023/08/06 02:27:03;;;;;;;;;3.00;2.00;;;;;-143.47;100.00;63865.75;2103092;27;46643;-52
2023/08/06 02:28:03;;;;;;;;;1.00;1.00;;;;;-143.47;100.00;63865.75;2106142;27;44953;-48
2023/08/06 02:29:04;;;;;;;;;0.33;0.33;;;;;-143.47;100.00;63865.75;2103990;27;46888;-52
2023/08/06 02:30:05;;;;;;;;;0.00;0.00;;;;;-143.47;100.00;63865.75;2102610;27;45528;-50
2023/08/06 02:31:06;;;;;;;;;0.00;0.00;;;;;-143.47;100.00;63865.75;2097043;28;46888;-53
2023/08/06 02:32:07;;;;;;;;;1.25;1.00;;;;;-143.47;100.00;63865.75;2102760;28;46835;-51
2023/08/06 02:33:07;;;;;;;;;1.00;1.00;;;;;-143.47;100.00;63865.75;2104561;27;46192;-51
2023/08/06 02:34:08;;;;;;;;;2.00;1.00;;;;;-143.47;100.00;63865.75;2105560;27;46667;-52
2023/08/06 02:35:08;;;;;;;;;1.00;1.00;;;;;-143.47;100.00;63865.75;2101490;27;46696;-50
2023/08/06 02:36:08;;;;;;;;;1.00;1.00;;;;;-143.47;100.00;63865.75;2097477;28;46807;-50
2023/08/06 02:37:09;;;;;;;;;0.00;0.00;;;;;-143.47;100.00;63865.75;2103772;28;46370;-51
2023/08/06 02:38:09;;;;;;;;;2.00;1.67;;;;;-143.47;100.00;63865.75;2100613;28;46937;-49
2023/08/06 02:39:09;;;;;;;;;2.00;0.00;;;;;-143.47;100.00;63865.75;2097388;28;46277;-50
2023/08/06 02:40:10;;;;;;;;;1.33;1.33;;;;;-143.47;100.00;63865.75;2101765;28;46256;-50
2023/08/06 02:41:10;;;;;;;;;3.00;3.00;;;;;-143.47;100.00;63865.75;2095571;28;46826;-52
2023/08/06 02:42:11;;;;;;;;;2.00;2.00;;;;;-143.47;100.00;63865.75;2095868;28;47726;-50
2023/08/06 02:43:12;;;;;;;;;1.00;1.00;;;;;-143.47;100.00;63865.75;2100394;28;46619;-51
2023/08/06 02:44:12;;;;;;;;;1.00;1.00;;;;;-143.47;100.00;63865.75;2097244;28;46954;-49
2023/08/06 02:45:12;;;;;;;;;1.00;0.00;;;;;-143.47;100.00;63865.75;2099192;28;46288;-50
2023/08/06 02:46:13;;;;;;;;;1.00;1.00;;;;;-143.47;100.00;63865.75;2089728;28;46647;-50
2023/08/06 02:47:13;;;;;;;;;1.67;1.00;;;;;-143.47;100.00;63865.75;2104602;28;46558;-50
2023/08/06 02:48:13;;;;;;;;;1.00;1.00;;;;;-143.47;100.00;63865.75;2104321;27;46695;-49
2023/08/06 02:49:14;;;;;;;;;0.67;0.67;;;;;-143.47;100.00;63865.75;2097622;27;46596;-53
2023/08/06 02:50:14;;;;;;;;;1.00;0.00;;;;;-143.47;100.00;63865.75;2105490;28;46147;-52
2023/08/06 02:51:15;;;;;;;;;1.33;1.33;;;;;-143.47;100.00;63865.75;2100333;28;46172;-54
2023/08/06 02:52:15;;;;;;;;;2.00;2.00;;;;;-143.47;100.00;63865.75;2105207;27;46932;-50
2023/08/06 02:53:16;;;;;;;;;1.33;1.33;;;;;-143.47;100.00;63865.75;2102478;28;46329;-51
2023/08/06 02:54:16;;;;;;;;;1.00;1.00;;;;;-143.47;100.00;63865.75;2104208;27;46441;-53
2023/08/06 02:55:16;;;;;;;;;1.00;1.00;;;;;-143.47;100.00;63865.75;2105798;27;46380;-50
2023/08/06 02:56:17;;;;;;;;;2.33;2.33;;;;;-143.47;100.00;63865.75;2101592;27;46520;-50
2023/08/06 02:57:17;;;;;;;;;1.00;1.00;;;;;-143.47;100.00;63865.75;2087206;28;46239;-49
2023/08/06 02:58:22;;;;;;;;;2.00;2.00;;;;;-143.47;100.00;63865.75;2095921;28;46880;-52
2023/08/06 02:59:22;;;;;;;;;1.00;0.25;;;;;-143.47;100.00;63865.75;2103864;28;46665;-51
2023/08/06 03:00:22;;;;;;;;;1.00;1.00;;;;;-143.47;100.00;63865.75;2093394;28;46410;-50
2023/08/06 03:01:23;;;;;;;;;1.00;1.00;;;;;-143.47;100.00;63865.75;2104610;28;46423;-53
2023/08/06 03:02:23;;;;;;;;;1.00;1.00;;;;;-143.47;100.00;63865.75;2098027;27;46741;-53
2023/08/06 03:03:23;;;;;;;;;2.00;2.00;;;;;-143.47;100.00;63865.75;2097342;28;46096;-49
2023/08/06 03:04:24;;;;;;;;;2.33;1.00;;;;;-143.47;100.00;63865.75;2103076;28;46353;-51
2023/08/06 03:05:24;;;;;;;;;2.00;2.00;;;;;-143.47;100.00;63865.75;2105508;27;46601;-49
2023/08/06 03:06:25;;;;;;;;;2.00;1.00;;;;;-143.47;100.00;63865.75;2104674;28;46670;-49
2023/08/06 03:07:25;;;;;;;;;0.00;0.00;;;;;-143.47;100.00;63865.75;2105003;28;46227;-51
2023/08/06 03:08:25;;;;;;;;;1.00;0.00;;;;;-143.47;100.00;63865.75;2105601;27;46599;-51
2023/08/06 03:09:26;;;;;;;;;2.33;2.33;;;;;-143.47;100.00;63865.75;2098164;27;46502;-51
2023/08/06 03:10:26;;;;;;;;;3.00;1.00;;;;;-143.47;100.00;63865.75;2095874;28;46438;-49
2023/08/06 03:11:27;;;;;;;;;0.67;0.67;;;;;-143.47;100.00;63865.75;2096990;28;45845;-51
2023/08/06 03:12:27;;;;;;;;;2.00;2.00;;;;;-143.47;100.00;63865.75;2096790;28;46087;-49
2023/08/06 03:13:28;;;;;;;;;2.33;1.00;;;;;-143.47;100.00;63865.75;2096594;28;46328;-49
2023/08/06 03:14:28;;;;;;;;;3.00;1.67;;;;;-143.47;100.00;63865.75;2096907;28;46861;-54
2023/08/06 03:15:28;;;;;;;;;1.00;1.00;;;;;-143.47;100.00;63865.75;2103756;28;46265;-53
2023/08/06 03:16:29;;;;;;;;;1.00;1.00;;;;;-143.47;100.00;63865.75;2104475;28;46745;-49
2023/08/06 03:17:29;;;;;;;;;0.00;0.00;;;;;-143.47;100.00;63865.75;2102386;28;46304;-53
2023/08/06 03:18:29;;;;;;;;;2.00;1.00;;;;;-143.47;100.00;63865.75;2094815;28;46233;-51
2023/08/06 03:19:30;;;;;;;;;2.33;2.33;;;;;-143.47;100.00;63865.75;2092124;28;46148;-53
2023/08/06 03:20:30;;;;;;;;;2.67;1.33;;;;;-143.47;100.00;63865.75;2097602;28;46377;-55
2023/08/06 03:21:31;;;;;;;;;1.33;1.00;;;;;-143.47;100.00;63865.75;2105350;27;46526;-53
2023/08/06 03:22:31;;;;;;;;;1.00;1.00;;;;;-143.47;100.00;63865.75;2102386;27;46230;-53
2023/08/06 03:23:32;;;;;;;;;0.00;0.00;;;;;-143.47;100.00;63865.75;2102992;27;46616;-53
2023/08/06 03:24:32;;;;;;;;;2.00;2.00;;;;;-143.47;100.00;63865.75;2104597;28;46202;-53
2023/08/06 03:25:36;;;;;;;;;1.00;1.00;;;;;-143.47;100.00;63865.75;2101032;27;46760;-54
2023/08/06 03:26:36;;;;;;;;;1.50;1.50;;;;;-143.47;100.00;63865.75;2104375;28;46992;-52
2023/08/06 03:27:37;;;;;;;;;3.33;2.67;;;;;-143.47;100.00;63865.75;2096819;28;46280;-55
2023/08/06 03:28:37;;;;;;;;;2.00;1.67;;;;;-143.47;100.00;63865.75;2100063;28;46042;-54
2023/08/06 03:29:37;;;;;;;;;3.00;2.00;;;;;-143.47;100.00;63865.75;2105154;27;46448;-52
2023/08/06 03:30:38;;;;;;;;;1.33;1.33;;;;;-143.47;100.00;63865.75;2105514;27;46176;-51
2023/08/06 03:31:38;;;;;;;;;1.00;1.00;;;;;-143.47;100.00;63865.75;2103124;27;46526;-51
2023/08/06 03:32:39;;;;;;;;;2.67;2.00;;;;;-143.47;100.00;63865.75;2105226;28;46372;-52
2023/08/06 03:33:39;;;;;;;;;2.00;2.00;;;;;-143.47;100.00;63865.75;2102390;27;46377;-51
2023/08/06 03:34:39;;;;;;;;;2.33;2.00;;;;;-143.47;100.00;63865.75;2105108;27;46374;-51
2023/08/06 03:35:40;;;;;;;;;2.33;2.00;;;;;-143.47;100.00;63865.75;2102846;28;45527;-52
2023/08/06 03:36:40;;;;;;;;;0.67;0.00;;;;;-143.47;100.00;63865.75;2096607;28;46000;-50
2023/08/06 03:37:41;;;;;;;;;0.67;0.67;;;;;-143.47;100.00;63865.75;2098060;27;46369;-51
2023/08/06 03:38:41;;;;;;;;;2.67;2.67;;;;;-143.47;100.00;63865.75;2101906;28;45412;-49
2023/08/06 03:39:41;;;;;;;;;2.33;2.00;;;;;-143.47;100.00;63865.75;2103237;27;46861;-53
2023/08/06 03:40:42;;;;;;;;;5.33;1.67;;;;;-143.47;100.00;63865.75;2097070;28;45744;-55
2023/08/06 03:41:42;;;;;;;;;2.67;2.00;;;;;-143.47;100.00;63865.75;2099715;28;46300;-50
2023/08/06 03:42:42;;;;;;;;;1.33;1.33;;;;;-143.47;100.00;63865.75;2104017;27;46756;-51
2023/08/06 03:43:43;;;;;;;;;2.00;2.00;;;;;-143.47;100.00;63865.75;2105121;27;46157;-53
2023/08/06 03:44:43;;;;;;;;;1.67;1.67;;;;;-143.47;100.00;63865.75;2099049;27;46738;-51
2023/08/06 03:45:43;;;;;;;;;1.33;1.33;;;;;-143.47;100.00;63865.75;2098049;28;46706;-50
2023/08/06 03:46:44;;;;;;;;;2.33;2.00;;;;;-143.47;100.00;63865.75;2102907;28;46671;-52
2023/08/06 03:47:44;;;;;;;;;2.00;1.00;;;;;-143.47;100.00;63865.75;2104921;28;46373;-50
2023/08/06 03:48:44;;;;;;;;;2.00;2.00;;;;;-143.47;100.00;63865.75;2101154;28;46130;-52
2023/08/06 03:49:44;;;;;;;;;2.67;2.67;;;;;-143.47;100.00;63865.75;2100100;28;46810;-51
2023/08/06 03:50:45;;;;;;;;;1.33;1.33;;;;;-143.47;100.00;63865.75;2100610;27;46455;-49
2023/08/06 03:51:46;;;;;;;;;2.33;1.67;;;;;-143.47;100.00;63865.75;2094263;28;46310;-50
2023/08/06 03:52:46;;;;;;;;;4.00;2.00;;;;;-143.47;100.00;63865.75;2093608;28;46283;-51
2023/08/06 03:53:47;;;;;;;;;1.67;1.67;;;;;-143.47;100.00;63865.75;2113249;27;46188;-53
2023/08/06 03:54:47;;;;;;;;;2.00;2.00;;;;;-143.47;100.00;63865.75;2112920;27;46571;-54
2023/08/06 03:55:47;;;;;;;;;2.00;2.00;;;;;-143.47;100.00;63865.75;2096849;27;46871;-50
2023/08/06 03:56:48;;;;;;;;;2.00;1.33;;;;;-143.47;100.00;63865.75;2098280;27;46436;-53
2023/08/06 03:57:48;;;;;;;;;2.67;2.67;;;;;-143.47;100.00;63865.75;2100197;28;46632;-49
2023/08/06 03:58:49;;;;;;;;;3.00;2.00;;;;;-143.47;100.00;63865.75;2104307;27;46759;-50
2023/08/06 03:59:49;;;;;;;;;2.00;2.00;;;;;-143.47;100.00;63865.75;2104119;27;46948;-50
2023/08/06 04:01:00;;;;;;;;;2.00;2.00;;;;;-143.47;100.00;63865.75;2097598;27;47207;-52
2023/08/06 04:02:00;;;;;;;;;1.67;1.00;;;;;-143.47;100.00;63865.75;2100146;28;46896;-50
2023/08/06 04:03:01;;;;;;;;;2.00;2.00;;;;;-143.47;100.00;63865.75;2097618;27;46616;-54
2023/08/06 04:04:01;;;;;;;;;2.00;2.00;;;;;-143.47;100.00;63865.75;2099344;28;46222;-53
2023/08/06 04:05:01;;;;;;;;;2.33;2.33;;;;;-143.47;100.00;63865.75;2098027;28;46900;-51
2023/08/06 04:06:04;;;;;;;;;1.67;1.67;;;;;-143.47;100.00;63865.75;2104626;28;46580;-52
2023/08/06 04:07:05;;;;;;;;;3.00;1.75;;;;;-143.47;100.00;63865.75;2104484;27;46682;-52
2023/08/06 04:08:05;;;;;;;;;3.00;3.00;;;;;-143.47;100.00;63865.75;2105095;27;46599;-49
2023/08/06 04:09:05;;;;;;;;;5.33;2.00;;;;;-143.47;100.00;63865.75;2096673;27;46575;-49
2023/08/06 04:10:06;;;;;;;;;2.33;2.33;;;;;-143.47;100.00;63865.75;2099319;28;46562;-52
2023/08/06 04:11:06;;;;;;;;;1.00;1.00;;;;;-143.47;100.00;63865.75;2094333;28;46745;-53
2023/08/06 04:12:07;;;;;;;;;2.67;2.67;;;;;-143.47;100.00;63865.75;2094011;28;46696;-52
2023/08/06 04:13:07;;;;;;;;;2.00;2.00;;;;;-143.47;100.00;63865.75;2097880;28;46130;-49
2023/08/06 04:14:08;;;;;;;;;1.67;1.67;;;;;-143.47;100.00;63865.75;2099281;27;45858;-50
2023/08/06 04:15:08;;;;;;;;;2.00;2.00;;;;;-143.47;100.00;63865.75;2100210;28;46741;-53
2023/08/06 04:16:08;;;;;;;;;3.00;3.00;;;;;-143.47;100.00;63865.75;2096772;28;45250;-53
2023/08/06 04:17:09;;;;;;;;;0.00;0.00;;;;;-143.47;100.00;63865.75;2104286;28;46406;-52
2023/08/06 04:18:09;;;;;;;;;2.67;2.67;;;;;-143.47;100.00;63865.75;2104120;28;46475;-49
2023/08/06 04:19:09;;;;;;;;;1.00;1.00;;;;;-143.47;100.00;63865.75;2097615;28;46493;-52
2023/08/06 04:20:10;;;;;;;;;1.00;1.00;;;;;-143.47;100.00;63865.75;2096407;28;46904;-49
2023/08/06 04:21:10;;;;;;;;;2.67;2.67;;;;;-143.47;100.00;63865.75;2097046;28;46609;-49
2023/08/06 04:22:10;;;;;;;;;2.00;2.00;;;;;-143.47;100.00;63865.75;2105168;28;46279;-49
2023/08/06 04:23:11;;;;;;;;;2.33;2.33;;;;;-143.47;100.00;63865.75;2104723;28;46251;-50
2023/08/06 04:24:11;;;;;;;;;2.33;2.33;;;;;-143.47;100.00;63865.75;2097062;28;46165;-49
2023/08/06 04:25:11;;;;;;;;;2.67;2.67;;;;;-143.47;100.00;63865.75;2096022;28;46467;-52
2023/08/06 04:26:12;;;;;;;;;3.67;2.67;;;;;-143.47;100.00;63865.75;2096074;28;46839;-49
2023/08/06 04:27:14;;;;;;;;;2.00;2.00;;;;;-143.47;100.00;63865.75;2098544;28;46598;-51
2023/08/06 04:28:14;;;;;;;;;2.00;2.00;;;;;-143.47;100.00;63865.75;2096588;28;46866;-48
2023/08/06 04:29:15;;;;;;;;;3.00;2.00;;;;;-143.47;100.00;63865.75;2096568;28;46609;-51
2023/08/06 04:30:15;;;;;;;;;2.00;2.00;;;;;-143.47;100.00;63865.75;2104096;28;46633;-49
2023/08/06 04:31:16;;;;;;;;;3.33;2.00;;;;;-143.47;100.00;63865.75;2104387;27;45984;-51
2023/08/06 04:32:19;;;;;;;;;2.25;2.00;;;;;-143.47;100.00;63865.75;2096563;28;46575;-50
2023/08/06 04:33:20;;;;;;;;;3.75;3.00;;;;;-143.47;100.00;63865.75;2096647;28;46463;-50
2023/08/06 04:34:20;;;;;;;;;4.50;3.25;;;;;-143.47;100.00;63865.75;2096970;28;46670;-50
2023/08/06 04:35:21;;;;;;;;;2.00;2.00;;;;;-143.47;100.00;63865.75;2097209;27;46758;-52
2023/08/06 04:36:21;;;;;;;;;2.00;2.00;;;;;-143.47;100.00;63865.75;2096344;28;46218;-50
2023/08/06 04:37:21;;;;;;;;;1.67;1.67;;;;;-143.47;100.00;63865.75;2096505;28;46047;-49
2023/08/06 04:38:25;;;;;;;;;3.00;3.00;;;;;-143.47;100.00;63865.75;2102737;28;46286;-50
2023/08/06 04:39:25;;;;;;;;;2.00;2.00;;;;;-143.47;100.00;63865.75;2100467;28;46159;-53